Weather History for Beatrice, NE

Change the Weather History Date:

Wednesday, February 18, 2009

  Actual Average Record
Temperature  
Mean Temperature 32 °F -  
Max Temperature 35 °F 46 °F 71 °F (2014)
Min Temperature 28 °F 21 °F -11 °F (1978)
Degree Days  
Heating Degree Days 34    
Moisture  
Dew Point 23 °F    
Average Humidity 74    
Maximum Humidity 100    
Minimum Humidity 48    
Precipitation  
Precipitation 0.00 in - - ()
Sea Level Pressure  
Sea Level Pressure 29.83 in    
Wind  
Wind Speed 20 mph (NNW)    
Max Wind Speed 28 mph    
Max Gust Speed 33 mph    
Visibility 9 miles    
Events      
Averages and records for this station are not official NWS values.
T = Trace of Precipitation, MM = Missing Value Source: NWS Daily Summary

Daily Weather History Graph

Daily Weather History Graph

Search for Another Location

Airport:

Trip Planner

Search our weather history database for the weather conditions in past years. The results will help you decide how hot, cold, wet, or windy it might be!

Date:

Astronomy

Feb. 18, 2009 Rise Set
Actual Time 7:16 AM CST 6:06 PM CST
Civil Twilight 6:48 AM CST 6:34 PM CST
Nautical Twilight 6:16 AM CST 7:05 PM CST
Astronomical Twilight 5:45 AM CST 7:37 PM CST
Moon 3:13 AM CST (2/18) 12:05 PM CST (2/18)
Length of Visible Light 11h 45m
Length of Day
10h 50m
Waning Crescent, 33% of the Moon is Illuminated
Feb 18
Waning Crescent
Feb 24
New
Mar 4
First Quarter
Mar 10
Full
Mar 18
Last Quarter

Hourly Weather History & Observations

Time (CST) Temp. Windchill Dew Point Humidity Pressure Visibility Wind Dir Wind Speed Gust Speed Precip Events Conditions
12:10 AM 33.8 °F 23.2 °F 33.8 °F 100% 29.51 in 2.5 mi NW 17.3 mph 20.7 mph N/A   Overcast
12:30 AM 33.8 °F 23.5 °F 32.0 °F 93% 29.52 in 3.0 mi NW 16.1 mph - N/A   Mostly Cloudy
12:50 AM 35.6 °F 25.2 °F 32.0 °F 87% 29.53 in 4.0 mi NW 18.4 mph - N/A   Clear
1:10 AM 35.6 °F 25.5 °F 32.0 °F 87% 29.54 in 5.0 mi NW 17.3 mph 23.0 mph N/A   Mostly Cloudy
1:30 AM 35.6 °F 25.2 °F 32.0 °F 87% 29.56 in 5.0 mi NW 18.4 mph 24.2 mph N/A   Mostly Cloudy
1:50 AM 33.8 °F 23.2 °F 32.0 °F 93% 29.57 in 5.0 mi NW 17.3 mph 23.0 mph N/A   Scattered Clouds
2:10 AM 33.8 °F 23.5 °F 32.0 °F 93% 29.59 in 7.0 mi NW 16.1 mph 24.2 mph N/A   Mostly Cloudy
2:30 AM 33.8 °F 22.8 °F 32.0 °F 93% 29.60 in 7.0 mi NW 18.4 mph 25.3 mph N/A   Overcast
2:50 AM 33.8 °F 22.8 °F 32.0 °F 93% 29.61 in 7.0 mi NW 18.4 mph 24.2 mph N/A   Overcast
3:10 AM 33.8 °F 21.3 °F 32.0 °F 93% 29.62 in 7.0 mi NW 24.2 mph 31.1 mph N/A   Overcast
3:30 AM 33.8 °F 21.3 °F 30.2 °F 87% 29.63 in 7.0 mi NW 24.2 mph 33.4 mph N/A   Overcast
3:50 AM 32.0 °F 19.5 °F 30.2 °F 93% 29.65 in 7.0 mi NNW 21.9 mph 29.9 mph N/A   Overcast
4:10 AM 32.0 °F 19.2 °F 28.4 °F 87% 29.67 in 7.0 mi NW 23.0 mph 32.2 mph N/A   Overcast
4:30 AM 32.0 °F 18.6 °F 28.4 °F 87% 29.68 in 7.0 mi NNW 25.3 mph 31.1 mph N/A   Overcast
4:50 AM 32.0 °F 19.5 °F 28.4 °F 87% 29.69 in 7.0 mi NW 21.9 mph 31.1 mph N/A   Overcast
5:10 AM 30.2 °F 17.4 °F 26.6 °F 86% 29.71 in 7.0 mi NNW 20.7 mph 27.6 mph N/A   Overcast
5:30 AM 30.2 °F 17.1 °F 26.6 °F 86% 29.73 in 7.0 mi NNW 21.9 mph 27.6 mph N/A   Overcast
5:50 AM 30.2 °F 17.4 °F 26.6 °F 86% 29.74 in 10.0 mi NNW 20.7 mph 27.6 mph N/A   Overcast
6:10 AM 30.2 °F 18.5 °F 26.6 °F 86% 29.74 in 10.0 mi NNW 17.3 mph 25.3 mph N/A   Overcast
6:30 AM 30.2 °F 18.5 °F 26.6 °F 86% 29.76 in 10.0 mi NNW 17.3 mph - N/A   Overcast
6:50 AM 30.2 °F 17.8 °F 26.6 °F 86% 29.76 in 10.0 mi NNW 19.6 mph 25.3 mph N/A   Overcast
7:10 AM 28.4 °F 14.1 °F 24.8 °F 86% 29.77 in 10.0 mi North 24.2 mph 29.9 mph N/A   Overcast
7:30 AM 28.4 °F 15.4 °F 23.0 °F 80% 29.79 in 10.0 mi North 19.6 mph - N/A   Overcast
7:50 AM 28.4 °F 13.8 °F 23.0 °F 80% 29.81 in 10.0 mi NNW 25.3 mph 28.8 mph N/A   Overcast
8:10 AM 28.4 °F 14.1 °F 23.0 °F 80% 29.83 in 10.0 mi NNW 24.2 mph - N/A   Overcast
8:30 AM 28.4 °F 13.3 °F 21.2 °F 74% 29.84 in 10.0 mi NNW 27.6 mph 33.4 mph N/A   Overcast
8:50 AM 28.4 °F 13.5 °F 21.2 °F 74% 29.85 in 10.0 mi NNW 26.5 mph 32.2 mph N/A   Overcast
9:10 AM 28.4 °F 15.8 °F 21.2 °F 74% 29.85 in 10.0 mi NNW 18.4 mph 29.9 mph N/A   Overcast
9:30 AM 30.2 °F 17.4 °F 21.2 °F 69% 29.86 in 10.0 mi NNW 20.7 mph 27.6 mph N/A   Overcast
9:50 AM 30.2 °F 18.1 °F 21.2 °F 69% 29.87 in 10.0 mi NNW 18.4 mph 28.8 mph N/A   Overcast
10:10 AM 30.2 °F 16.2 °F 21.2 °F 69% 29.87 in 10.0 mi NNW 25.3 mph 32.2 mph N/A   Overcast
10:30 AM 30.2 °F 16.5 °F 23.0 °F 75% 29.88 in 10.0 mi NNW 24.2 mph 29.9 mph N/A   Overcast
10:50 AM 30.2 °F 16.8 °F 21.2 °F 69% 29.89 in 10.0 mi NNW 23.0 mph 29.9 mph N/A   Overcast
11:10 AM 30.2 °F 16.8 °F 21.2 °F 69% 29.91 in 10.0 mi NNW 23.0 mph 32.2 mph N/A   Overcast
11:30 AM 32.0 °F 19.2 °F 23.0 °F 69% 29.91 in 10.0 mi NNW 23.0 mph 29.9 mph N/A   Overcast
11:50 AM 32.0 °F 19.2 °F 21.2 °F 64% 29.92 in 10.0 mi NW 23.0 mph 29.9 mph N/A   Overcast
12:10 PM 32.0 °F 18.9 °F 21.2 °F 64% 29.93 in 10.0 mi NNW 24.2 mph 28.8 mph N/A   Overcast
12:30 PM 30.2 °F 17.1 °F 21.2 °F 69% 29.94 in 10.0 mi NNW 21.9 mph 29.9 mph N/A   Overcast
12:50 PM 30.2 °F 17.1 °F 21.2 °F 69% 29.95 in 10.0 mi NNW 21.9 mph 29.9 mph N/A   Overcast
1:10 PM 30.2 °F 16.8 °F 19.4 °F 64% 29.96 in 10.0 mi NNW 23.0 mph 29.9 mph N/A   Overcast
1:30 PM 32.0 °F 18.9 °F 21.2 °F 64% 29.96 in 10.0 mi NW 24.2 mph 27.6 mph N/A   Overcast
1:50 PM 32.0 °F 18.9 °F 19.4 °F 60% 29.96 in 10.0 mi NNW 24.2 mph 29.9 mph N/A   Mostly Cloudy
2:10 PM 32.0 °F 18.9 °F 19.4 °F 60% 29.97 in 10.0 mi NNW 24.2 mph 32.2 mph N/A   Mostly Cloudy
2:30 PM 32.0 °F 18.4 °F 19.4 °F 60% 29.98 in 10.0 mi NNW 26.5 mph 33.4 mph N/A   Mostly Cloudy
2:50 PM 32.0 °F 19.2 °F 19.4 °F 60% 29.99 in 10.0 mi NNW 23.0 mph 32.2 mph N/A   Overcast
3:10 PM 32.0 °F 19.2 °F 19.4 °F 60% 30.00 in 10.0 mi NNW 23.0 mph 32.2 mph N/A   Mostly Cloudy
3:30 PM 32.0 °F 19.5 °F 17.6 °F 55% 30.01 in 10.0 mi NNW 21.9 mph 28.8 mph N/A   Mostly Cloudy
3:50 PM 32.0 °F 20.1 °F 17.6 °F 55% 30.02 in 10.0 mi NNW 19.6 mph - N/A   Mostly Cloudy
4:10 PM 32.0 °F 19.8 °F 17.6 °F 55% 30.03 in 10.0 mi NNW 20.7 mph 26.5 mph N/A   Scattered Clouds
4:30 PM 32.0 °F 20.1 °F 15.8 °F 51% 30.04 in 10.0 mi NNW 19.6 mph 25.3 mph N/A   Mostly Cloudy
4:50 PM 32.0 °F 20.1 °F 14.0 °F 48% 30.05 in 10.0 mi NNW 19.6 mph 24.2 mph N/A   Mostly Cloudy
5:10 PM 32.0 °F 20.5 °F 14.0 °F 48% 30.05 in 10.0 mi NNW 18.4 mph 21.9 mph N/A   Mostly Cloudy
5:30 PM 30.2 °F 18.9 °F 15.8 °F 55% 30.06 in 10.0 mi NW 16.1 mph 23.0 mph N/A   Mostly Cloudy
5:50 PM 30.2 °F 18.9 °F 14.0 °F 51% 30.08 in 10.0 mi NNW 16.1 mph - N/A   Scattered Clouds
6:10 PM 28.4 °F 18.0 °F 14.0 °F 55% 30.09 in 10.0 mi NNW 12.7 mph - N/A   Clear
6:30 PM 28.4 °F 18.5 °F 15.8 °F 59% 30.10 in 10.0 mi NNW 11.5 mph - N/A   Scattered Clouds
6:50 PM 28.4 °F 18.0 °F 15.8 °F 59% 30.11 in 10.0 mi NNW 12.7 mph - N/A   Scattered Clouds
7:10 PM 26.6 °F 16.8 °F 14.0 °F 59% 30.12 in 10.0 mi NNW 10.4 mph - N/A   Clear
7:30 PM 24.8 °F 16.9 °F 15.8 °F 69% 30.13 in 10.0 mi NNW 6.9 mph - N/A   Scattered Clouds
7:50 PM 24.8 °F 16.9 °F 15.8 °F 69% 30.13 in 10.0 mi NW 6.9 mph - N/A   Clear
8:10 PM 23.0 °F 17.0 °F 15.8 °F 74% 30.14 in 10.0 mi NW 4.6 mph - N/A   Clear
8:30 PM 23.0 °F 13.9 °F 17.6 °F 80% 30.14 in 10.0 mi NW 8.1 mph - N/A   Clear
8:50 PM 23.0 °F 13.9 °F 17.6 °F 80% 30.15 in 10.0 mi NW 8.1 mph - N/A   Clear
9:10 PM 23.0 °F 14.7 °F 17.6 °F 80% 30.15 in 10.0 mi NW 6.9 mph - N/A   Clear
9:30 PM 23.0 °F 13.9 °F 17.6 °F 80% 30.16 in 10.0 mi NW 8.1 mph - N/A   Clear
9:50 PM 23.0 °F 13.9 °F 17.6 °F 80% 30.16 in 10.0 mi NW 8.1 mph - N/A   Clear
10:10 PM 23.0 °F 13.9 °F 17.6 °F 80% 30.17 in 10.0 mi NW 8.1 mph - N/A   Clear
10:30 PM 23.0 °F 13.1 °F 15.8 °F 74% 30.17 in 10.0 mi NW 9.2 mph - N/A   Clear
10:50 PM 21.2 °F 10.9 °F 15.8 °F 80% 30.17 in 10.0 mi NW 9.2 mph - N/A   Clear
11:10 PM 21.2 °F 11.7 °F 15.8 °F 80% 30.18 in 10.0 mi NW 8.1 mph - N/A   Clear
11:30 PM 21.2 °F 10.9 °F 15.8 °F 80% 30.19 in 10.0 mi NW 9.2 mph - N/A   Clear
11:50 PM 21.2 °F 12.6 °F 15.8 °F 80% 30.19 in 10.0 mi NW 6.9 mph - N/A   Clear